ADDS METAR Data INFO
IDs: Format: Raw Decoded Include TAF

Data at: 1132 UTC 29 May 2017

KPEQ 291115Z AUTO 00000KT 10SM CLR 16/08 A3012 RMK AO2 T01560075
KPEQ 291055Z AUTO 00000KT 10SM CLR 16/08 A3011 RMK AO2 T01630084
KPEQ 291035Z AUTO 00000KT 10SM CLR 17/09 A3011 RMK AO2 T01700092
KPEQ 291015Z AUTO 04004KT 10SM CLR 17/09 A3011 RMK AO2 T01660090
KPEQ 290955Z AUTO 04004KT 10SM CLR 17/09 A3011 RMK AO2 T01670085
KPEQ 290935Z AUTO 01005KT 10SM CLR 18/09 A3010 RMK AO2 T01750087
KPEQ 290915Z AUTO 04004KT 10SM CLR 17/09 A3010 RMK AO2 T01710087
KPEQ 290855Z AUTO 04004KT 10SM CLR 17/09 A3009 RMK AO2 T01720086
KPEQ 290835Z AUTO 08003KT 10SM CLR 18/08 A3009 RMK AO2 T01760083
KPEQ 290815Z AUTO 00000KT 10SM CLR 18/09 A3009 RMK AO2 T01800085
KPEQ 290755Z AUTO 12003KT 10SM CLR 19/08 A3009 RMK AO2 T01850083
KPEQ 290735Z AUTO 00000KT 10SM CLR 19/09 A3010 RMK AO2 T01870085
KPEQ 290715Z AUTO 10004KT 10SM CLR 20/09 A3011 RMK AO2 T01950085
KPEQ 290655Z AUTO 10007KT 10SM CLR 20/09 A3011 RMK AO2 T02030087
KPEQ 290635Z AUTO 09008KT 10SM CLR 21/09 A3011 RMK AO2 T02060086
KPEQ 290615Z AUTO 10008KT 10SM CLR 20/08 A3011 RMK AO2 T02000081
KPEQ 290555Z AUTO 09007KT 10SM CLR 20/08 A3010 RMK AO2 T01960075 10305 20196 403180181
KPEQ 290535Z AUTO 08005KT 10SM CLR 21/08 A3008 RMK AO2 T02080077
KPEQ 290515Z AUTO 08005KT 10SM CLR 21/08 A3007 RMK AO2 T02100075
KPEQ 290455Z AUTO 08005KT 10SM CLR 21/07 A3007 RMK AO2 T02100074
KPEQ 290435Z AUTO 08005KT 10SM CLR 22/08 A3006 RMK AO2 T02160075
KPEQ 290415Z AUTO 08006KT 10SM CLR 23/08 A3006 RMK AO2 T02270076
KPEQ 290355Z AUTO 08007KT 10SM CLR 24/08 A3005 RMK AO2 T02360076
KPEQ 290335Z AUTO 08007KT 10SM CLR 24/08 A3005 RMK AO2 T02420076
KPEQ 290315Z AUTO 08009KT 10SM CLR 25/08 A3003 RMK AO2 T02480075
KPEQ 290255Z AUTO 08009KT 10SM CLR 26/08 A3004 RMK AO2 T02550078
KPEQ 290235Z AUTO 08012KT 10SM CLR 26/08 A3003 RMK AO2 T02600080
KPEQ 290215Z AUTO 08014KT 10SM CLR 27/08 A3004 RMK AO2 T02650080
KPEQ 290155Z AUTO 08012KT 10SM CLR 27/08 A3003 RMK AO2 T02710082
KPEQ 290135Z AUTO 08011KT 10SM CLR 28/08 A3002 RMK AO2 T02770082
KPEQ 290115Z AUTO 09013KT 10SM CLR 29/08 A3002 RMK AO2 T02850083
KPEQ 290055Z AUTO 08014G19KT 10SM CLR 29/08 A3000 RMK AO2 T02930082
KPEQ 290035Z AUTO 08013G17KT 10SM CLR 30/08 A2999 RMK AO2 T02990084
KPEQ 290015Z AUTO 08015G19KT 10SM CLR 31/08 A2998 RMK AO2 T03050083
KPEQ 282355Z AUTO 10013G18KT 10SM CLR 31/08 A2998 RMK AO2 T03080081 10318 20256
KPEQ 282335Z AUTO 07013G17KT 10SM CLR 31/08 A2998 RMK AO2 T03120079
KPEQ 282315Z AUTO 05012G15KT 10SM CLR 31/07 A2998 RMK AO2 T03110068
KPEQ 282255Z AUTO 05011G23KT 10SM CLR 31/07 A2999 RMK AO2 T03130068
KPEQ 282235Z AUTO 07005G15KT 10SM CLR 31/07 A3000 RMK AO2 T03130070
KPEQ 282215Z AUTO 08009G17KT 10SM CLR 31/07 A3000 RMK AO2 T03120073
KPEQ 282155Z AUTO 07007KT 050V110 10SM CLR 31/08 A3002 RMK AO2 T03090078
KPEQ 282135Z AUTO 04006G14KT 10SM CLR 31/08 A3002 RMK AO2 T03070077
KPEQ 282115Z AUTO 05012G18KT 010V080 10SM CLR 31/08 A3003 RMK AO2 T03060080
KPEQ 282055Z AUTO 06012G20KT 10SM CLR 31/08 A3004 RMK AO2 T03050080
KPEQ 282035Z AUTO 03007G14KT 10SM CLR 30/08 A3005 RMK AO2 T02960080
KPEQ 282015Z AUTO 05009G19KT 10SM CLR 30/08 A3006 RMK AO2 T02990083
KPEQ 281955Z AUTO 06009G15KT 10SM CLR 29/09 A3007 RMK AO2 T02930085
KPEQ 281935Z AUTO 03008KT 10SM CLR 28/09 A3007 RMK AO2 T02820087
KPEQ 281915Z AUTO 02010G16KT 10SM CLR 28/09 A3009 RMK AO2 T02820091
KPEQ 281855Z AUTO 06006KT 010V070 10SM CLR 28/09 A3009 RMK AO2 T02780092
KPEQ 281835Z AUTO 03006G16KT 330V050 10SM CLR 27/09 A3010 RMK AO2 T02660090
KPEQ 281815Z AUTO 03008G15KT 10SM CLR 26/09 A3011 RMK AO2 T02640093
KPEQ 281755Z AUTO 36006G14KT 10SM CLR 26/09 A3012 RMK AO2 T02570092 10260 20181
KPEQ 281735Z AUTO 03008G15KT 10SM CLR 25/10 A3013 RMK AO2 T02530095
KPEQ 281715Z AUTO 35009G16KT 10SM CLR 24/10 A3014 RMK AO2 T02440096
KPEQ 281655Z AUTO 36011G17KT 10SM CLR 24/10 A3014 RMK AO2 T02370097
KPEQ 281635Z AUTO 35011G16KT 10SM CLR 23/10 A3014 RMK AO2 T02300096
KPEQ 281615Z AUTO 35011G17KT 10SM CLR 23/10 A3016 RMK AO2 T02250097
KPEQ 281555Z AUTO 34011G14KT 10SM CLR 22/10 A3016 RMK AO2 T02200099
KPEQ 281535Z AUTO 36013KT 10SM CLR 21/10 A3017 RMK AO2 T02140100
KPEQ 281515Z AUTO 35011G16KT 10SM SCT036 21/10 A3016 RMK AO2 T02090098
KPEQ 281455Z AUTO 35010G18KT 10SM BKN036 20/10 A3016 RMK AO2 T02010096
KPEQ 281435Z AUTO 35013G18KT 10SM OVC036 20/10 A3016 RMK AO2 T02020095
KPEQ 281415Z AUTO 36014G20KT 10SM BKN034 20/09 A3016 RMK AO2 T01990091
KPEQ 281355Z AUTO 35013KT 10SM BKN034 20/09 A3015 RMK AO2 T02000088
KPEQ 281335Z AUTO 36012G21KT 10SM SCT036 20/09 A3014 RMK AO2 T01970091
KPEQ 281315Z AUTO 35008KT 10SM CLR 19/10 A3014 RMK AO2 T01920095
KPEQ 281255Z AUTO 35011KT 10SM CLR 19/09 A3012 RMK AO2 T01870091
KPEQ 281235Z AUTO 35013G22KT 10SM CLR 18/09 A3009 RMK AO2 T01810086
KPEQ 281215Z AUTO 34016G23KT 10SM CLR 18/09 A3006 RMK AO2 T01830090
KPEQ 281155Z AUTO 34014G23KT 10SM CLR 19/09 A3005 RMK AO2 T01860093 10255 20186
KPEQ 281135Z AUTO 34019G28KT 10SM CLR 19/10 A3002 RMK AO2 T01910099
KPEQ 281115Z AUTO 34017G24KT 10SM CLR 20/10 A3000 RMK AO2 T01990103
KPEQ 281055Z AUTO 35019G25KT 7SM CLR 21/11 A2998 RMK AO2 T02120112
KPEQ 281035Z AUTO 36021G28KT 10SM CLR 24/11 A2996 RMK AO2 T02350108
KPEQ 281015Z AUTO 01019G27KT 7SM CLR 24/07 A2995 RMK AO2 T02410066
KPEQ 280955Z AUTO 35022G29KT 10SM CLR 24/M01 A2993 RMK AO2 T02401014
KPEQ 280935Z AUTO 27007KT 10SM CLR 23/M01 A2990 RMK AO2 T02261007
KPEQ 280915Z AUTO 27006KT 10SM CLR 22/M01 A2990 RMK AO2 T02151010
KPEQ 280855Z AUTO 25003KT 10SM CLR 21/M01 A2990 RMK AO2 T02111013
KPEQ 280835Z AUTO 26008KT 10SM CLR 22/M01 A2990 RMK AO2 T02151011
KPEQ 280815Z AUTO 26006KT 10SM CLR 21/M02 A2991 RMK AO2 T02141016
KPEQ 280755Z AUTO 25006KT 10SM CLR 22/M01 A2991 RMK AO2 T02151014
KPEQ 280735Z AUTO 24006KT 10SM CLR 23/M01 A2991 RMK AO2 T02251012
KPEQ 280715Z AUTO 24005KT 10SM CLR 23/M01 A2991 RMK AO2 T02311015
KPEQ 280655Z AUTO 00000KT 10SM CLR 24/M02 A2991 RMK AO2 T02421019
KPEQ 280635Z AUTO 21006KT 10SM CLR 24/M02 A2991 RMK AO2 T02421021
KPEQ 280615Z AUTO 20006KT 10SM CLR 25/M02 A2991 RMK AO2 T02501022
KPEQ 280555Z AUTO 15006KT 10SM CLR 25/M01 A2990 RMK AO2 T02541008 10370 20253 403840187
KPEQ 280535Z AUTO 34004KT 10SM CLR 26/M01 A2990 RMK AO2 T02561012
KPEQ 280515Z AUTO 31003KT 10SM CLR 26/M02 A2989 RMK AO2 T02611020
KPEQ 280455Z AUTO 30003KT 10SM CLR 26/M02 A2989 RMK AO2 T02561024
KPEQ 280435Z AUTO 30004KT 10SM CLR 26/M02 A2988 RMK AO2 T02581021
KPEQ 280415Z AUTO 30005KT 10SM CLR 27/M02 A2988 RMK AO2 T02671025
KPEQ 280355Z AUTO 31007KT 10SM CLR 28/M03 A2988 RMK AO2 T02761026
KPEQ 280335Z AUTO 32006KT 10SM CLR 28/M03 A2986 RMK AO2 T02761026
KPEQ 280315Z AUTO 31006KT 10SM CLR 29/M02 A2986 RMK AO2 T02881025
KPEQ 280255Z AUTO 31007KT 10SM CLR 30/M02 A2986 RMK AO2 T02951019
KPEQ 280235Z AUTO 29007KT 10SM CLR 30/M01 A2985 RMK AO2 T02991015
KPEQ 280215Z AUTO 29007KT 10SM CLR 31/M01 A2985 RMK AO2 T03141012
KPEQ 280155Z AUTO 29007KT 10SM CLR 33/M01 A2984 RMK AO2 T03271010
KPEQ 280135Z AUTO 28010KT 10SM CLR 34/M01 A2984 RMK AO2 T03391007
KPEQ 280115Z AUTO 28013KT 10SM CLR 35/M01 A2983 RMK AO2 T03511010
KPEQ 280055Z AUTO 28013G18KT 10SM CLR 36/M01 A2983 RMK AO2 T03561010
KPEQ 280035Z AUTO 27014G18KT 10SM CLR 36/M01 A2983 RMK AO2 T03621009
KPEQ 280015Z AUTO 27015G22KT 10SM CLR 37/M02 A2982 RMK AO2 T03671016
KPEQ 272355Z AUTO 25018KT 10SM CLR 37/M01 A2982 RMK AO2 T03701015 10384 20351
KPEQ 272335Z AUTO 28018G25KT 10SM CLR 37/M02 A2982 RMK AO2 T03721018


Page loaded:  11:32 UTC  |   04:32 AM Pacific  |   05:32 AM Mountain  |   06:32 AM Central  |   07:32 AM Eastern

 

ADVISORIES

FORECASTS

FORECASTS

OBSERVATIONS

USER TOOLS

ABOUT US